sensor_id;sensor_type;location;lat;lon;timestamp;P1;durP1;ratioP1;P2;durP2;ratioP2
15858;SDS011;8029;52.202;7.308;2022-11-18T00:01:42;2.65;;;1.70;;
15858;SDS011;8029;52.202;7.308;2022-11-18T00:04:08;3.50;;;2.65;;
15858;SDS011;8029;52.202;7.308;2022-11-18T00:06:34;3.00;;;2.38;;
15858;SDS011;8029;52.202;7.308;2022-11-18T00:09:00;3.00;;;2.08;;
15858;SDS011;8029;52.202;7.308;2022-11-18T00:11:26;2.50;;;2.15;;
15858;SDS011;8029;52.202;7.308;2022-11-18T00:14:12;2.90;;;2.13;;
15858;SDS011;8029;52.202;7.308;2022-11-18T00:17:05;2.33;;;2.13;;
15858;SDS011;8029;52.202;7.308;2022-11-18T00:19:32;2.97;;;2.67;;
15858;SDS011;8029;52.202;7.308;2022-11-18T00:21:58;3.13;;;2.45;;
15858;SDS011;8029;52.202;7.308;2022-11-18T00:24:25;2.15;;;1.90;;
15858;SDS011;8029;52.202;7.308;2022-11-18T00:26:52;1.95;;;1.85;;
15858;SDS011;8029;52.202;7.308;2022-11-18T00:29:18;5.32;;;3.08;;
15858;SDS011;8029;52.202;7.308;2022-11-18T00:31:44;4.72;;;2.55;;
15858;SDS011;8029;52.202;7.308;2022-11-18T00:34:11;18.92;;;2.25;;
15858;SDS011;8029;52.202;7.308;2022-11-18T00:36:37;12.65;;;3.00;;
15858;SDS011;8029;52.202;7.308;2022-11-18T00:39:03;2.25;;;1.88;;
15858;SDS011;8029;52.202;7.308;2022-11-18T00:41:29;2.83;;;2.30;;
15858;SDS011;8029;52.202;7.308;2022-11-18T00:44:14;2.10;;;1.70;;
15858;SDS011;8029;52.202;7.308;2022-11-18T00:46:40;2.20;;;2.00;;
15858;SDS011;8029;52.202;7.308;2022-11-18T00:49:06;3.78;;;2.67;;
15858;SDS011;8029;52.202;7.308;2022-11-18T00:51:32;2.17;;;1.98;;
15858;SDS011;8029;52.202;7.308;2022-11-18T00:53:58;3.63;;;2.08;;
15858;SDS011;8029;52.202;7.308;2022-11-18T00:56:24;2.78;;;1.75;;
15858;SDS011;8029;52.202;7.308;2022-11-18T00:58:50;3.83;;;2.78;;
15858;SDS011;8029;52.202;7.308;2022-11-18T01:01:16;2.25;;;2.05;;
15858;SDS011;8029;52.202;7.308;2022-11-18T01:03:42;2.63;;;2.40;;
15858;SDS011;8029;52.202;7.308;2022-11-18T01:06:08;2.17;;;1.98;;
15858;SDS011;8029;52.202;7.308;2022-11-18T01:08:34;2.60;;;2.38;;
15858;SDS011;8029;52.202;7.308;2022-11-18T01:11:00;3.45;;;2.65;;
15858;SDS011;8029;52.202;7.308;2022-11-18T01:13:47;2.63;;;2.40;;
15858;SDS011;8029;52.202;7.308;2022-11-18T01:16:16;2.90;;;1.90;;
15858;SDS011;8029;52.202;7.308;2022-11-18T01:18:42;1.55;;;1.45;;
15858;SDS011;8029;52.202;7.308;2022-11-18T01:21:08;1.58;;;1.48;;
15858;SDS011;8029;52.202;7.308;2022-11-18T01:23:34;3.95;;;2.15;;
15858;SDS011;8029;52.202;7.308;2022-11-18T01:26:03;1.73;;;1.60;;
15858;SDS011;8029;52.202;7.308;2022-11-18T01:28:29;5.80;;;2.78;;
15858;SDS011;8029;52.202;7.308;2022-11-18T01:30:58;3.22;;;2.63;;
15858;SDS011;8029;52.202;7.308;2022-11-18T01:33:27;2.08;;;1.90;;
15858;SDS011;8029;52.202;7.308;2022-11-18T01:35:53;2.78;;;2.58;;
15858;SDS011;8029;52.202;7.308;2022-11-18T01:38:19;9.13;;;3.17;;
15858;SDS011;8029;52.202;7.308;2022-11-18T01:40:46;3.38;;;2.50;;
15858;SDS011;8029;52.202;7.308;2022-11-18T01:43:13;2.88;;;2.53;;
15858;SDS011;8029;52.202;7.308;2022-11-18T01:45:40;4.20;;;2.55;;
15858;SDS011;8029;52.202;7.308;2022-11-18T01:48:08;2.22;;;2.13;;
15858;SDS011;8029;52.202;7.308;2022-11-18T01:50:36;2.67;;;2.45;;
15858;SDS011;8029;52.202;7.308;2022-11-18T01:53:04;2.53;;;2.33;;
15858;SDS011;8029;52.202;7.308;2022-11-18T01:55:34;3.20;;;2.90;;
15858;SDS011;8029;52.202;7.308;2022-11-18T01:58:21;5.38;;;2.35;;
15858;SDS011;8029;52.202;7.308;2022-11-18T02:00:49;2.40;;;2.20;;
15858;SDS011;8029;52.202;7.308;2022-11-18T02:03:16;4.80;;;3.17;;
15858;SDS011;8029;52.202;7.308;2022-11-18T02:05:42;5.43;;;3.22;;
15858;SDS011;8029;52.202;7.308;2022-11-18T02:08:09;3.13;;;2.55;;
15858;SDS011;8029;52.202;7.308;2022-11-18T02:10:35;2.33;;;2.13;;
15858;SDS011;8029;52.202;7.308;2022-11-18T02:13:01;3.33;;;2.75;;
15858;SDS011;8029;52.202;7.308;2022-11-18T02:15:52;4.40;;;3.00;;
15858;SDS011;8029;52.202;7.308;2022-11-18T02:18:26;3.03;;;2.60;;
15858;SDS011;8029;52.202;7.308;2022-11-18T02:26:17;2.92;;;2.63;;
15858;SDS011;8029;52.202;7.308;2022-11-18T02:31:26;2.63;;;2.42;;
15858;SDS011;8029;52.202;7.308;2022-11-18T02:34:05;6.38;;;2.33;;
15858;SDS011;8029;52.202;7.308;2022-11-18T02:39:08;5.10;;;2.53;;
15858;SDS011;8029;52.202;7.308;2022-11-18T02:41:35;2.40;;;2.20;;
15858;SDS011;8029;52.202;7.308;2022-11-18T02:44:06;2.53;;;2.30;;
15858;SDS011;8029;52.202;7.308;2022-11-18T02:46:34;2.63;;;2.42;;
15858;SDS011;8029;52.202;7.308;2022-11-18T02:49:02;3.15;;;2.85;;
15858;SDS011;8029;52.202;7.308;2022-11-18T02:51:29;3.05;;;2.75;;
15858;SDS011;8029;52.202;7.308;2022-11-18T02:53:57;18.08;;;3.20;;
15858;SDS011;8029;52.202;7.308;2022-11-18T02:56:28;2.45;;;2.25;;
15858;SDS011;8029;52.202;7.308;2022-11-18T02:58:54;2.70;;;2.50;;
15858;SDS011;8029;52.202;7.308;2022-11-18T03:01:24;4.25;;;3.58;;
15858;SDS011;8029;52.202;7.308;2022-11-18T03:03:51;2.70;;;2.33;;
15858;SDS011;8029;52.202;7.308;2022-11-18T03:06:36;5.95;;;3.55;;
15858;SDS011;8029;52.202;7.308;2022-11-18T03:11:33;2.70;;;2.50;;
15858;SDS011;8029;52.202;7.308;2022-11-18T03:14:15;2.72;;;2.42;;
15858;SDS011;8029;52.202;7.308;2022-11-18T03:16:47;5.70;;;3.65;;
15858;SDS011;8029;52.202;7.308;2022-11-18T03:21:47;2.65;;;2.42;;
15858;SDS011;8029;52.202;7.308;2022-11-18T03:24:29;5.63;;;3.83;;
15858;SDS011;8029;52.202;7.308;2022-11-18T03:27:40;3.97;;;3.20;;
15858;SDS011;8029;52.202;7.308;2022-11-18T03:29:47;2.75;;;2.55;;
15858;SDS011;8029;52.202;7.308;2022-11-18T03:32:16;2.80;;;2.60;;
15858;SDS011;8029;52.202;7.308;2022-11-18T03:34:47;3.70;;;2.63;;
15858;SDS011;8029;52.202;7.308;2022-11-18T03:37:14;5.68;;;3.35;;
15858;SDS011;8029;52.202;7.308;2022-11-18T03:39:42;2.85;;;2.55;;
15858;SDS011;8029;52.202;7.308;2022-11-18T03:42:11;4.75;;;2.92;;
15858;SDS011;8029;52.202;7.308;2022-11-18T03:44:39;3.30;;;3.00;;
15858;SDS011;8029;52.202;7.308;2022-11-18T03:47:14;2.92;;;2.63;;
15858;SDS011;8029;52.202;7.308;2022-11-18T03:49:42;17.85;;;3.17;;
15858;SDS011;8029;52.202;7.308;2022-11-18T03:52:10;6.75;;;3.40;;
15858;SDS011;8029;52.202;7.308;2022-11-18T03:54:39;7.93;;;2.63;;
15858;SDS011;8029;52.202;7.308;2022-11-18T03:57:13;4.63;;;3.35;;
15858;SDS011;8029;52.202;7.308;2022-11-18T03:59:42;2.10;;;1.83;;
15858;SDS011;8029;52.202;7.308;2022-11-18T04:02:18;3.00;;;2.70;;
15858;SDS011;8029;52.202;7.308;2022-11-18T04:04:46;10.63;;;3.53;;
15858;SDS011;8029;52.202;7.308;2022-11-18T04:09:52;2.80;;;2.60;;
15858;SDS011;8029;52.202;7.308;2022-11-18T04:12:20;8.07;;;2.97;;
15858;SDS011;8029;52.202;7.308;2022-11-18T04:14:47;5.85;;;3.08;;
15858;SDS011;8029;52.202;7.308;2022-11-18T04:17:17;5.47;;;4.97;;
15858;SDS011;8029;52.202;7.308;2022-11-18T04:19:44;4.10;;;3.53;;
15858;SDS011;8029;52.202;7.308;2022-11-18T04:22:10;32.70;;;3.53;;
15858;SDS011;8029;52.202;7.308;2022-11-18T04:24:36;3.92;;;3.47;;
15858;SDS011;8029;52.202;7.308;2022-11-18T04:27:02;3.20;;;2.65;;
15858;SDS011;8029;52.202;7.308;2022-11-18T04:29:28;6.65;;;2.95;;
15858;SDS011;8029;52.202;7.308;2022-11-18T04:31:56;3.92;;;3.55;;
15858;SDS011;8029;52.202;7.308;2022-11-18T04:34:22;3.22;;;2.92;;
15858;SDS011;8029;52.202;7.308;2022-11-18T04:36:48;2.92;;;2.72;;
15858;SDS011;8029;52.202;7.308;2022-11-18T04:39:14;2.97;;;2.75;;
15858;SDS011;8029;52.202;7.308;2022-11-18T04:41:42;3.80;;;3.40;;
15858;SDS011;8029;52.202;7.308;2022-11-18T04:44:20;4.55;;;3.38;;
15858;SDS011;8029;52.202;7.308;2022-11-18T04:46:46;3.45;;;3.15;;
15858;SDS011;8029;52.202;7.308;2022-11-18T04:49:13;7.65;;;4.88;;
15858;SDS011;8029;52.202;7.308;2022-11-18T04:51:39;4.50;;;3.63;;
15858;SDS011;8029;52.202;7.308;2022-11-18T04:54:05;7.10;;;3.80;;
15858;SDS011;8029;52.202;7.308;2022-11-18T04:56:31;5.20;;;4.10;;
15858;SDS011;8029;52.202;7.308;2022-11-18T04:58:58;4.65;;;3.85;;
15858;SDS011;8029;52.202;7.308;2022-11-18T05:01:25;4.28;;;3.88;;
15858;SDS011;8029;52.202;7.308;2022-11-18T05:03:51;4.43;;;4.03;;
15858;SDS011;8029;52.202;7.308;2022-11-18T05:06:17;5.68;;;4.72;;
15858;SDS011;8029;52.202;7.308;2022-11-18T05:08:43;5.25;;;4.70;;
15858;SDS011;8029;52.202;7.308;2022-11-18T05:11:09;7.10;;;5.03;;
15858;SDS011;8029;52.202;7.308;2022-11-18T05:13:54;5.00;;;4.35;;
15858;SDS011;8029;52.202;7.308;2022-11-18T05:16:20;11.43;;;4.60;;
15858;SDS011;8029;52.202;7.308;2022-11-18T05:18:46;6.53;;;5.28;;
15858;SDS011;8029;52.202;7.308;2022-11-18T05:21:12;5.32;;;4.50;;
15858;SDS011;8029;52.202;7.308;2022-11-18T05:23:38;6.40;;;5.60;;
15858;SDS011;8029;52.202;7.308;2022-11-18T05:26:04;5.65;;;4.07;;
15858;SDS011;8029;52.202;7.308;2022-11-18T05:28:33;7.43;;;5.50;;
15858;SDS011;8029;52.202;7.308;2022-11-18T05:30:59;5.90;;;5.30;;
15858;SDS011;8029;52.202;7.308;2022-11-18T05:33:25;6.22;;;5.63;;
15858;SDS011;8029;52.202;7.308;2022-11-18T05:35:51;5.93;;;5.35;;
15858;SDS011;8029;52.202;7.308;2022-11-18T05:38:17;7.45;;;5.63;;
15858;SDS011;8029;52.202;7.308;2022-11-18T05:40:43;5.35;;;4.55;;
15858;SDS011;8029;52.202;7.308;2022-11-18T05:43:09;12.00;;;5.25;;
15858;SDS011;8029;52.202;7.308;2022-11-18T05:45:36;19.17;;;6.80;;
15858;SDS011;8029;52.202;7.308;2022-11-18T05:48:02;9.57;;;5.18;;
15858;SDS011;8029;52.202;7.308;2022-11-18T05:50:28;5.10;;;4.60;;
15858;SDS011;8029;52.202;7.308;2022-11-18T05:52:54;6.10;;;5.13;;
15858;SDS011;8029;52.202;7.308;2022-11-18T05:55:21;7.93;;;5.43;;
15858;SDS011;8029;52.202;7.308;2022-11-18T05:57:48;8.10;;;5.45;;
15858;SDS011;8029;52.202;7.308;2022-11-18T06:00:14;6.50;;;5.22;;
15858;SDS011;8029;52.202;7.308;2022-11-18T06:02:41;6.15;;;5.55;;
15858;SDS011;8029;52.202;7.308;2022-11-18T06:05:08;6.47;;;5.90;;
15858;SDS011;8029;52.202;7.308;2022-11-18T06:07:36;12.00;;;7.60;;
15858;SDS011;8029;52.202;7.308;2022-11-18T06:10:04;7.03;;;5.63;;
15858;SDS011;8029;52.202;7.308;2022-11-18T06:12:32;7.78;;;5.60;;
15858;SDS011;8029;52.202;7.308;2022-11-18T06:15:01;8.00;;;6.35;;
15858;SDS011;8029;52.202;7.308;2022-11-18T06:17:40;7.30;;;5.55;;
15858;SDS011;8029;52.202;7.308;2022-11-18T06:20:09;7.40;;;6.50;;
15858;SDS011;8029;52.202;7.308;2022-11-18T06:22:35;6.88;;;6.05;;
15858;SDS011;8029;52.202;7.308;2022-11-18T06:25:02;7.70;;;6.38;;
15858;SDS011;8029;52.202;7.308;2022-11-18T06:27:28;8.38;;;6.55;;
15858;SDS011;8029;52.202;7.308;2022-11-18T06:29:54;11.05;;;7.32;;
15858;SDS011;8029;52.202;7.308;2022-11-18T06:32:20;7.65;;;6.88;;
15858;SDS011;8029;52.202;7.308;2022-11-18T06:34:46;6.85;;;6.05;;
15858;SDS011;8029;52.202;7.308;2022-11-18T06:37:13;8.60;;;7.60;;
15858;SDS011;8029;52.202;7.308;2022-11-18T06:39:39;11.43;;;7.30;;
15858;SDS011;8029;52.202;7.308;2022-11-18T06:42:05;7.55;;;6.75;;
15858;SDS011;8029;52.202;7.308;2022-11-18T06:44:31;7.75;;;6.68;;
15858;SDS011;8029;52.202;7.308;2022-11-18T06:46:57;9.93;;;7.28;;
15858;SDS011;8029;52.202;7.308;2022-11-18T06:49:23;12.18;;;8.30;;
15858;SDS011;8029;52.202;7.308;2022-11-18T06:51:50;8.48;;;6.88;;
15858;SDS011;8029;52.202;7.308;2022-11-18T06:54:16;9.60;;;6.90;;
15858;SDS011;8029;52.202;7.308;2022-11-18T06:56:42;8.18;;;7.00;;
15858;SDS011;8029;52.202;7.308;2022-11-18T06:59:08;9.13;;;7.60;;
15858;SDS011;8029;52.202;7.308;2022-11-18T07:01:34;8.93;;;7.70;;
15858;SDS011;8029;52.202;7.308;2022-11-18T07:04:01;7.90;;;7.10;;
15858;SDS011;8029;52.202;7.308;2022-11-18T07:06:27;7.97;;;7.18;;
15858;SDS011;8029;52.202;7.308;2022-11-18T07:08:54;10.32;;;7.10;;
15858;SDS011;8029;52.202;7.308;2022-11-18T07:11:21;9.98;;;8.98;;
15858;SDS011;8029;52.202;7.308;2022-11-18T07:13:47;8.98;;;8.07;;
15858;SDS011;8029;52.202;7.308;2022-11-18T07:16:18;8.35;;;7.47;;
15858;SDS011;8029;52.202;7.308;2022-11-18T07:18:45;9.23;;;8.10;;
15858;SDS011;8029;52.202;7.308;2022-11-18T07:21:15;8.50;;;7.60;;
15858;SDS011;8029;52.202;7.308;2022-11-18T07:23:41;9.32;;;7.05;;
15858;SDS011;8029;52.202;7.308;2022-11-18T07:26:07;7.68;;;6.35;;
15858;SDS011;8029;52.202;7.308;2022-11-18T07:28:34;18.95;;;9.15;;
15858;SDS011;8029;52.202;7.308;2022-11-18T07:31:00;10.25;;;7.72;;
15858;SDS011;8029;52.202;7.308;2022-11-18T07:33:27;11.55;;;7.15;;
15858;SDS011;8029;52.202;7.308;2022-11-18T07:35:53;9.25;;;8.23;;
15858;SDS011;8029;52.202;7.308;2022-11-18T07:38:19;9.48;;;7.60;;
15858;SDS011;8029;52.202;7.308;2022-11-18T07:40:45;8.18;;;7.38;;
15858;SDS011;8029;52.202;7.308;2022-11-18T07:43:11;7.78;;;6.93;;
15858;SDS011;8029;52.202;7.308;2022-11-18T07:45:37;13.02;;;7.50;;
15858;SDS011;8029;52.202;7.308;2022-11-18T07:48:03;11.35;;;7.03;;
15858;SDS011;8029;52.202;7.308;2022-11-18T07:50:29;11.98;;;9.02;;
15858;SDS011;8029;52.202;7.308;2022-11-18T07:52:55;15.15;;;8.43;;
15858;SDS011;8029;52.202;7.308;2022-11-18T07:55:21;12.18;;;8.13;;
15858;SDS011;8029;52.202;7.308;2022-11-18T07:57:47;7.55;;;6.50;;
15858;SDS011;8029;52.202;7.308;2022-11-18T08:00:13;7.70;;;6.97;;
15858;SDS011;8029;52.202;7.308;2022-11-18T08:02:39;12.25;;;7.10;;
15858;SDS011;8029;52.202;7.308;2022-11-18T08:05:07;8.45;;;7.50;;
15858;SDS011;8029;52.202;7.308;2022-11-18T08:07:33;8.50;;;7.65;;
15858;SDS011;8029;52.202;7.308;2022-11-18T08:09:59;10.25;;;6.95;;
15858;SDS011;8029;52.202;7.308;2022-11-18T08:12:27;8.07;;;7.03;;
15858;SDS011;8029;52.202;7.308;2022-11-18T08:14:54;9.88;;;8.82;;
15858;SDS011;8029;52.202;7.308;2022-11-18T08:17:20;10.07;;;8.65;;
15858;SDS011;8029;52.202;7.308;2022-11-18T08:19:47;9.43;;;8.43;;
15858;SDS011;8029;52.202;7.308;2022-11-18T08:22:12;10.48;;;8.57;;
15858;SDS011;8029;52.202;7.308;2022-11-18T08:24:40;11.93;;;9.65;;
15858;SDS011;8029;52.202;7.308;2022-11-18T08:27:06;9.25;;;8.32;;
15858;SDS011;8029;52.202;7.308;2022-11-18T08:29:32;12.15;;;10.50;;
15858;SDS011;8029;52.202;7.308;2022-11-18T08:31:59;10.90;;;9.20;;
15858;SDS011;8029;52.202;7.308;2022-11-18T08:34:25;10.80;;;7.85;;
15858;SDS011;8029;52.202;7.308;2022-11-18T08:36:50;11.93;;;8.80;;
15858;SDS011;8029;52.202;7.308;2022-11-18T08:39:16;14.90;;;9.68;;
15858;SDS011;8029;52.202;7.308;2022-11-18T08:41:43;14.38;;;9.57;;
15858;SDS011;8029;52.202;7.308;2022-11-18T08:44:11;14.63;;;9.93;;
15858;SDS011;8029;52.202;7.308;2022-11-18T08:46:37;11.13;;;8.77;;
15858;SDS011;8029;52.202;7.308;2022-11-18T08:49:03;9.65;;;8.23;;
15858;SDS011;8029;52.202;7.308;2022-11-18T08:51:29;9.40;;;8.40;;
15858;SDS011;8029;52.202;7.308;2022-11-18T08:53:55;8.18;;;7.28;;
15858;SDS011;8029;52.202;7.308;2022-11-18T08:56:22;12.73;;;9.05;;
15858;SDS011;8029;52.202;7.308;2022-11-18T08:58:48;11.48;;;8.27;;
15858;SDS011;8029;52.202;7.308;2022-11-18T09:01:14;9.30;;;7.78;;
15858;SDS011;8029;52.202;7.308;2022-11-18T09:03:40;9.38;;;7.97;;
15858;SDS011;8029;52.202;7.308;2022-11-18T09:06:13;11.13;;;8.32;;
15858;SDS011;8029;52.202;7.308;2022-11-18T09:08:40;8.13;;;7.25;;
15858;SDS011;8029;52.202;7.308;2022-11-18T09:11:06;7.88;;;6.90;;
15858;SDS011;8029;52.202;7.308;2022-11-18T09:13:33;6.63;;;6.00;;
15858;SDS011;8029;52.202;7.308;2022-11-18T09:15:59;9.65;;;7.00;;
15858;SDS011;8029;52.202;7.308;2022-11-18T09:18:25;8.85;;;7.95;;
15858;SDS011;8029;52.202;7.308;2022-11-18T09:20:55;13.05;;;9.05;;
15858;SDS011;8029;52.202;7.308;2022-11-18T09:23:21;10.30;;;7.47;;
15858;SDS011;8029;52.202;7.308;2022-11-18T09:25:47;8.27;;;6.90;;
15858;SDS011;8029;52.202;7.308;2022-11-18T09:28:13;6.75;;;6.15;;
15858;SDS011;8029;52.202;7.308;2022-11-18T09:30:39;11.05;;;8.20;;
15858;SDS011;8029;52.202;7.308;2022-11-18T09:33:05;9.15;;;7.00;;
15858;SDS011;8029;52.202;7.308;2022-11-18T09:35:31;9.90;;;7.70;;
15858;SDS011;8029;52.202;7.308;2022-11-18T09:38:00;7.03;;;6.22;;
15858;SDS011;8029;52.202;7.308;2022-11-18T09:40:26;8.57;;;6.72;;
15858;SDS011;8029;52.202;7.308;2022-11-18T09:45:27;7.55;;;6.78;;
15858;SDS011;8029;52.202;7.308;2022-11-18T09:47:55;7.10;;;6.40;;
15858;SDS011;8029;52.202;7.308;2022-11-18T09:50:21;9.40;;;6.97;;
15858;SDS011;8029;52.202;7.308;2022-11-18T09:55:22;6.90;;;5.45;;
15858;SDS011;8029;52.202;7.308;2022-11-18T09:57:53;8.52;;;6.93;;
15858;SDS011;8029;52.202;7.308;2022-11-18T10:00:21;7.65;;;5.90;;
15858;SDS011;8029;52.202;7.308;2022-11-18T10:05:20;5.85;;;5.00;;
15858;SDS011;8029;52.202;7.308;2022-11-18T10:07:58;5.90;;;5.35;;
15858;SDS011;8029;52.202;7.308;2022-11-18T10:18:32;6.90;;;5.28;;
15858;SDS011;8029;52.202;7.308;2022-11-18T10:23:28;7.28;;;6.53;;
15858;SDS011;8029;52.202;7.308;2022-11-18T10:25:57;5.90;;;5.25;;
15858;SDS011;8029;52.202;7.308;2022-11-18T10:28:24;6.20;;;5.32;;
15858;SDS011;8029;52.202;7.308;2022-11-18T10:30:53;6.90;;;5.68;;
15858;SDS011;8029;52.202;7.308;2022-11-18T10:33:23;7.90;;;6.80;;
15858;SDS011;8029;52.202;7.308;2022-11-18T10:35:50;7.53;;;5.75;;
15858;SDS011;8029;52.202;7.308;2022-11-18T10:38:17;6.03;;;4.90;;
15858;SDS011;8029;52.202;7.308;2022-11-18T10:46:14;6.00;;;5.35;;
15858;SDS011;8029;52.202;7.308;2022-11-18T10:48:41;6.63;;;6.03;;
15858;SDS011;8029;52.202;7.308;2022-11-18T10:51:28;5.90;;;5.28;;
15858;SDS011;8029;52.202;7.308;2022-11-18T10:54:03;7.18;;;5.30;;
15858;SDS011;8029;52.202;7.308;2022-11-18T10:56:42;4.72;;;4.32;;
15858;SDS011;8029;52.202;7.308;2022-11-18T10:59:10;9.57;;;5.55;;
15858;SDS011;8029;52.202;7.308;2022-11-18T11:01:42;7.07;;;5.72;;
15858;SDS011;8029;52.202;7.308;2022-11-18T11:04:21;7.78;;;5.97;;
15858;SDS011;8029;52.202;7.308;2022-11-18T11:06:47;5.93;;;5.25;;
15858;SDS011;8029;52.202;7.308;2022-11-18T11:11:41;10.27;;;5.40;;
15858;SDS011;8029;52.202;7.308;2022-11-18T11:14:12;5.10;;;4.60;;
15858;SDS011;8029;52.202;7.308;2022-11-18T11:16:44;5.75;;;4.18;;
15858;SDS011;8029;52.202;7.308;2022-11-18T11:19:11;5.30;;;4.80;;
15858;SDS011;8029;52.202;7.308;2022-11-18T11:21:39;8.98;;;5.40;;
15858;SDS011;8029;52.202;7.308;2022-11-18T11:24:09;6.93;;;6.05;;
15858;SDS011;8029;52.202;7.308;2022-11-18T11:26:45;7.05;;;6.35;;
15858;SDS011;8029;52.202;7.308;2022-11-18T11:29:31;7.22;;;6.32;;
15858;SDS011;8029;52.202;7.308;2022-11-18T11:32:22;6.85;;;5.88;;
15858;SDS011;8029;52.202;7.308;2022-11-18T11:44:59;8.77;;;6.72;;
15858;SDS011;8029;52.202;7.308;2022-11-18T11:53:16;6.40;;;5.35;;
15858;SDS011;8029;52.202;7.308;2022-11-18T12:00:40;6.95;;;5.18;;
15858;SDS011;8029;52.202;7.308;2022-11-18T12:05:53;8.73;;;5.57;;
15858;SDS011;8029;52.202;7.308;2022-11-18T12:08:23;9.73;;;6.05;;
15858;SDS011;8029;52.202;7.308;2022-11-18T12:10:56;7.40;;;5.18;;
15858;SDS011;8029;52.202;7.308;2022-11-18T12:16:02;6.25;;;5.65;;
15858;SDS011;8029;52.202;7.308;2022-11-18T12:18:41;7.28;;;4.80;;
15858;SDS011;8029;52.202;7.308;2022-11-18T12:21:08;12.23;;;5.35;;
15858;SDS011;8029;52.202;7.308;2022-11-18T12:26:38;5.45;;;4.63;;
15858;SDS011;8029;52.202;7.308;2022-11-18T12:29:19;7.05;;;5.70;;
15858;SDS011;8029;52.202;7.308;2022-11-18T12:31:56;7.10;;;4.82;;
15858;SDS011;8029;52.202;7.308;2022-11-18T12:34:38;10.93;;;5.78;;
15858;SDS011;8029;52.202;7.308;2022-11-18T12:43:02;10.13;;;4.90;;
15858;SDS011;8029;52.202;7.308;2022-11-18T12:50:51;10.02;;;6.40;;
15858;SDS011;8029;52.202;7.308;2022-11-18T12:56:19;9.02;;;4.97;;
15858;SDS011;8029;52.202;7.308;2022-11-18T13:01:12;5.07;;;4.55;;
15858;SDS011;8029;52.202;7.308;2022-11-18T13:03:38;5.78;;;4.65;;
15858;SDS011;8029;52.202;7.308;2022-11-18T13:06:06;4.03;;;3.63;;
15858;SDS011;8029;52.202;7.308;2022-11-18T13:08:32;5.07;;;4.68;;
15858;SDS011;8029;52.202;7.308;2022-11-18T13:11:04;4.25;;;3.85;;
15858;SDS011;8029;52.202;7.308;2022-11-18T13:13:51;9.95;;;6.55;;
15858;SDS011;8029;52.202;7.308;2022-11-18T13:16:36;6.68;;;4.85;;
15858;SDS011;8029;52.202;7.308;2022-11-18T13:19:21;5.18;;;4.68;;
15858;SDS011;8029;52.202;7.308;2022-11-18T13:21:55;6.30;;;4.50;;
15858;SDS011;8029;52.202;7.308;2022-11-18T13:24:44;5.22;;;4.72;;
15858;SDS011;8029;52.202;7.308;2022-11-18T13:27:15;7.75;;;4.53;;
15858;SDS011;8029;52.202;7.308;2022-11-18T13:30:03;4.70;;;4.20;;
15858;SDS011;8029;52.202;7.308;2022-11-18T13:32:30;5.32;;;4.82;;
15858;SDS011;8029;52.202;7.308;2022-11-18T13:35:16;6.80;;;4.95;;
15858;SDS011;8029;52.202;7.308;2022-11-18T13:37:56;5.25;;;4.13;;
15858;SDS011;8029;52.202;7.308;2022-11-18T13:40:25;5.28;;;4.78;;
15858;SDS011;8029;52.202;7.308;2022-11-18T13:42:51;7.35;;;4.15;;
15858;SDS011;8029;52.202;7.308;2022-11-18T13:45:17;8.00;;;5.60;;
15858;SDS011;8029;52.202;7.308;2022-11-18T13:47:47;7.00;;;6.03;;
15858;SDS011;8029;52.202;7.308;2022-11-18T13:53:27;5.93;;;4.93;;
15858;SDS011;8029;52.202;7.308;2022-11-18T13:55:56;5.68;;;5.05;;
15858;SDS011;8029;52.202;7.308;2022-11-18T14:01:19;4.43;;;4.03;;
15858;SDS011;8029;52.202;7.308;2022-11-18T14:03:47;6.93;;;5.18;;
15858;SDS011;8029;52.202;7.308;2022-11-18T14:08:50;4.97;;;4.20;;
15858;SDS011;8029;52.202;7.308;2022-11-18T14:11:33;7.10;;;5.32;;
15858;SDS011;8029;52.202;7.308;2022-11-18T14:13:59;6.63;;;4.90;;
15858;SDS011;8029;52.202;7.308;2022-11-18T14:16:29;5.35;;;4.55;;
15858;SDS011;8029;52.202;7.308;2022-11-18T14:18:55;6.18;;;5.13;;
15858;SDS011;8029;52.202;7.308;2022-11-18T14:21:28;5.78;;;5.13;;
15858;SDS011;8029;52.202;7.308;2022-11-18T14:23:55;5.88;;;5.18;;
15858;SDS011;8029;52.202;7.308;2022-11-18T14:26:34;9.98;;;6.93;;
15858;SDS011;8029;52.202;7.308;2022-11-18T14:29:02;5.55;;;5.05;;
15858;SDS011;8029;52.202;7.308;2022-11-18T14:31:29;7.00;;;5.78;;
15858;SDS011;8029;52.202;7.308;2022-11-18T14:34:15;7.43;;;5.63;;
15858;SDS011;8029;52.202;7.308;2022-11-18T14:36:48;7.78;;;5.65;;
15858;SDS011;8029;52.202;7.308;2022-11-18T14:39:24;6.47;;;5.60;;
15858;SDS011;8029;52.202;7.308;2022-11-18T14:41:51;6.53;;;5.20;;
15858;SDS011;8029;52.202;7.308;2022-11-18T14:44:17;6.47;;;4.90;;
15858;SDS011;8029;52.202;7.308;2022-11-18T14:46:45;6.85;;;5.22;;
15858;SDS011;8029;52.202;7.308;2022-11-18T14:49:12;6.63;;;5.60;;
15858;SDS011;8029;52.202;7.308;2022-11-18T14:51:39;6.03;;;5.43;;
15858;SDS011;8029;52.202;7.308;2022-11-18T14:54:05;7.15;;;5.88;;
15858;SDS011;8029;52.202;7.308;2022-11-18T14:56:31;6.45;;;5.60;;
15858;SDS011;8029;52.202;7.308;2022-11-18T14:58:58;6.20;;;5.57;;
15858;SDS011;8029;52.202;7.308;2022-11-18T15:01:24;7.32;;;6.47;;
15858;SDS011;8029;52.202;7.308;2022-11-18T15:03:51;6.70;;;5.43;;
15858;SDS011;8029;52.202;7.308;2022-11-18T15:06:18;7.13;;;5.32;;
15858;SDS011;8029;52.202;7.308;2022-11-18T15:08:45;7.65;;;6.03;;
15858;SDS011;8029;52.202;7.308;2022-11-18T15:11:12;6.25;;;5.40;;
15858;SDS011;8029;52.202;7.308;2022-11-18T15:13:39;10.95;;;6.90;;
15858;SDS011;8029;52.202;7.308;2022-11-18T15:16:19;5.60;;;4.63;;
15858;SDS011;8029;52.202;7.308;2022-11-18T15:18:46;7.40;;;5.13;;
15858;SDS011;8029;52.202;7.308;2022-11-18T15:21:13;8.15;;;4.72;;
15858;SDS011;8029;52.202;7.308;2022-11-18T15:23:39;6.50;;;5.78;;
15858;SDS011;8029;52.202;7.308;2022-11-18T15:26:16;5.10;;;4.60;;
15858;SDS011;8029;52.202;7.308;2022-11-18T15:28:43;8.18;;;5.13;;
15858;SDS011;8029;52.202;7.308;2022-11-18T15:31:09;5.13;;;4.63;;
15858;SDS011;8029;52.202;7.308;2022-11-18T15:33:35;3.92;;;3.53;;
15858;SDS011;8029;52.202;7.308;2022-11-18T15:36:01;6.40;;;4.93;;
15858;SDS011;8029;52.202;7.308;2022-11-18T15:38:27;10.57;;;5.20;;
15858;SDS011;8029;52.202;7.308;2022-11-18T15:40:53;6.50;;;5.32;;
15858;SDS011;8029;52.202;7.308;2022-11-18T15:43:19;12.48;;;5.07;;
15858;SDS011;8029;52.202;7.308;2022-11-18T15:45:45;5.40;;;4.70;;
15858;SDS011;8029;52.202;7.308;2022-11-18T15:48:11;6.90;;;6.18;;
15858;SDS011;8029;52.202;7.308;2022-11-18T15:50:37;8.48;;;7.68;;
15858;SDS011;8029;52.202;7.308;2022-11-18T15:53:03;9.00;;;8.07;;
15858;SDS011;8029;52.202;7.308;2022-11-18T15:55:29;7.50;;;6.75;;
15858;SDS011;8029;52.202;7.308;2022-11-18T15:57:55;4.40;;;3.95;;
15858;SDS011;8029;52.202;7.308;2022-11-18T16:00:21;4.18;;;3.72;;
15858;SDS011;8029;52.202;7.308;2022-11-18T16:02:47;6.55;;;4.30;;
15858;SDS011;8029;52.202;7.308;2022-11-18T16:05:13;5.38;;;4.10;;
15858;SDS011;8029;52.202;7.308;2022-11-18T16:07:39;5.88;;;4.45;;
15858;SDS011;8029;52.202;7.308;2022-11-18T16:10:05;4.38;;;3.97;;
15858;SDS011;8029;52.202;7.308;2022-11-18T16:13:07;5.70;;;4.30;;
15858;SDS011;8029;52.202;7.308;2022-11-18T16:15:33;5.32;;;4.07;;
15858;SDS011;8029;52.202;7.308;2022-11-18T16:18:08;7.18;;;4.93;;
15858;SDS011;8029;52.202;7.308;2022-11-18T16:20:35;4.68;;;3.83;;
15858;SDS011;8029;52.202;7.308;2022-11-18T16:23:01;4.22;;;3.40;;
15858;SDS011;8029;52.202;7.308;2022-11-18T16:25:27;3.95;;;3.28;;
15858;SDS011;8029;52.202;7.308;2022-11-18T16:27:53;3.53;;;3.22;;
15858;SDS011;8029;52.202;7.308;2022-11-18T16:30:19;3.28;;;2.83;;
15858;SDS011;8029;52.202;7.308;2022-11-18T16:33:04;4.13;;;3.72;;
15858;SDS011;8029;52.202;7.308;2022-11-18T16:35:30;5.10;;;3.95;;
15858;SDS011;8029;52.202;7.308;2022-11-18T16:37:57;3.30;;;3.03;;
15858;SDS011;8029;52.202;7.308;2022-11-18T16:40:23;5.20;;;3.40;;
15858;SDS011;8029;52.202;7.308;2022-11-18T16:42:50;3.92;;;3.47;;
15858;SDS011;8029;52.202;7.308;2022-11-18T16:45:16;5.70;;;3.75;;
15858;SDS011;8029;52.202;7.308;2022-11-18T16:47:42;9.02;;;4.35;;
15858;SDS011;8029;52.202;7.308;2022-11-18T16:50:09;4.78;;;4.15;;